KDDC/DDC METAR and TAF weather

Enter ICAO airport designator
Station Type Date Time Source
KDDC METAR 2018/04/20 08:52 UTC NOAA

KDDC 200852Z AUTO 13015KT 8SM SCT090 07/M03 A3025 RMK AO2 SLP238 T00671028


Station Type Date Time Source
KDDC Decoded METAR 2018/04/20 08:52 UTC NOAA

DODGE CITY REGIONAL AIRPORT, KS, United States (KDDC) 37-46N 99-58W 789M
Apr 20, 2018 - 04:52 AM EDT / 2018.04.20 0852 UTC
Wind: from the SE (130 degrees) at 17 MPH (15 KT):0
Visibility: 8 mile(s):0
Sky conditions: partly cloudy
Temperature: 44.1 F (6.7 C)
Dew Point: 27.0 F (-2.8 C)
Relative Humidity: 50%
Pressure (altimeter): 30.25 in. Hg (1024 hPa)
Pressure tendency: 0.01 inches (0.3 hPa) lower than three hours ago
ob: KDDC 200852Z AUTO 13015KT 8SM SCT090 07/M03 A3025 RMK AO2 SLP238 T00671028 55003
cycle: 9

Station Type Date Time Source
KDDC TAF 2018/04/20 06:34 UTC NOAA

TAF KDDC 200531Z 2006/2106 14011KT P6SM SCT250
FM201500 14015G21KT P6SM BKN120
FM202100 12012KT P6SM -RA OVC070
FM210100 12015KT 6SM -RA OVC040
FM210300 12010KT 6SM -RA OVC010


Example: see airport list